createdAt,value
2022-12-11T00:00:11.061Z,24.14
2022-12-11T00:01:11.059Z,20.34
2022-12-11T00:02:11.119Z,23.40
2022-12-11T00:03:15.645Z,22.46
2022-12-11T00:04:13.085Z,19.50
2022-12-11T00:05:11.264Z,22.92
2022-12-11T00:06:11.068Z,26.16
2022-12-11T00:07:11.065Z,23.64
2022-12-11T00:08:11.122Z,23.72
2022-12-11T00:09:11.068Z,24.12
2022-12-11T00:10:11.061Z,24.74
2022-12-11T00:11:14.064Z,23.36
2022-12-11T00:12:11.064Z,21.68
2022-12-11T00:13:11.062Z,25.18
2022-12-11T00:14:11.060Z,21.74
2022-12-11T00:15:11.316Z,26.10
2022-12-11T00:16:11.118Z,20.42
2022-12-11T00:17:11.111Z,24.12
2022-12-11T00:18:13.060Z,23.72
2022-12-11T00:19:11.063Z,25.82
2022-12-11T00:20:11.059Z,23.42
2022-12-11T00:21:14.059Z,23.82
2022-12-11T00:22:11.068Z,19.26
2022-12-11T00:23:11.059Z,22.44
2022-12-11T00:24:11.060Z,22.00
2022-12-11T00:25:11.438Z,22.68
2022-12-11T00:26:12.063Z,19.68
2022-12-11T00:27:11.059Z,20.02
2022-12-11T00:28:11.069Z,20.18
2022-12-11T00:29:12.059Z,22.28
2022-12-11T00:30:11.063Z,20.88
2022-12-11T00:31:12.070Z,23.58
2022-12-11T00:32:11.116Z,19.72
2022-12-11T00:33:11.064Z,20.30
2022-12-11T00:34:11.069Z,22.92
2022-12-11T00:35:11.302Z,24.98
2022-12-11T00:36:14.060Z,22.88
2022-12-11T00:37:11.093Z,22.98
2022-12-11T00:38:14.063Z,21.34
2022-12-11T00:39:11.063Z,23.22
2022-12-11T00:40:11.069Z,24.64
2022-12-11T00:41:11.060Z,21.36
2022-12-11T00:42:11.060Z,23.88
2022-12-11T00:43:11.069Z,25.62
2022-12-11T00:44:11.059Z,24.58
2022-12-11T00:45:11.281Z,21.88
2022-12-11T00:46:11.186Z,20.38
2022-12-11T00:47:11.061Z,30.34
2022-12-11T00:48:11.061Z,26.74
2022-12-11T00:49:11.071Z,24.62
2022-12-11T00:50:11.060Z,23.88
2022-12-11T00:51:11.067Z,25.60
2022-12-11T00:52:11.068Z,23.80
2022-12-11T00:53:11.060Z,23.86
2022-12-11T00:54:11.064Z,25.90
2022-12-11T00:55:11.257Z,21.40
2022-12-11T00:56:14.060Z,23.26
2022-12-11T00:57:11.062Z,22.24
2022-12-11T00:58:11.064Z,22.64
2022-12-11T00:59:11.060Z,23.12
2022-12-11T01:00:13.067Z,21.48
2022-12-11T01:01:15.126Z,20.80
2022-12-11T01:02:11.062Z,19.78
2022-12-11T01:03:12.186Z,22.32
2022-12-11T01:04:11.061Z,19.06
2022-12-11T01:05:11.351Z,21.10
2022-12-11T01:06:13.062Z,21.00
2022-12-11T01:07:11.062Z,23.32
2022-12-11T01:08:11.144Z,20.12
2022-12-11T01:09:15.060Z,22.08
2022-12-11T01:10:15.087Z,24.46
2022-12-11T01:11:12.070Z,23.42
2022-12-11T01:12:11.062Z,22.56
2022-12-11T01:13:11.058Z,22.52
2022-12-11T01:14:11.069Z,20.92
2022-12-11T01:15:11.311Z,19.94
2022-12-11T01:16:11.064Z,18.42
2022-12-11T01:17:11.071Z,20.22
2022-12-11T01:18:11.060Z,20.32
2022-12-11T01:19:11.067Z,21.28
2022-12-11T01:20:11.070Z,20.98
2022-12-11T01:21:11.067Z,20.38
2022-12-11T01:22:11.064Z,20.10
2022-12-11T01:23:11.072Z,23.24
2022-12-11T01:24:11.061Z,23.28
2022-12-11T01:25:11.280Z,21.92
2022-12-11T01:26:14.072Z,23.38
2022-12-11T01:27:11.062Z,22.40
2022-12-11T01:28:11.062Z,20.64
2022-12-11T01:29:11.066Z,23.32
2022-12-11T01:30:11.068Z,19.82
2022-12-11T01:31:14.176Z,22.48
2022-12-11T01:32:11.063Z,23.32
2022-12-11T01:33:11.063Z,23.22
2022-12-11T01:34:11.059Z,19.34
2022-12-11T01:35:11.451Z,22.00
2022-12-11T01:36:20.065Z,20.10
2022-12-11T01:37:11.066Z,19.86
2022-12-11T01:38:11.070Z,20.68
2022-12-11T01:39:11.065Z,23.70
2022-12-11T01:40:12.061Z,19.50
2022-12-11T01:41:11.065Z,20.04
2022-12-11T01:42:18.063Z,21.06
2022-12-11T01:43:13.062Z,24.24
2022-12-11T01:44:19.064Z,22.86
2022-12-11T01:45:19.066Z,25.30
2022-12-11T01:46:11.131Z,18.96
2022-12-11T01:47:11.060Z,21.84
2022-12-11T01:48:13.070Z,23.08
2022-12-11T01:49:14.067Z,25.34
2022-12-11T01:50:11.061Z,19.02
2022-12-11T01:51:11.067Z,20.10
2022-12-11T01:52:18.065Z,20.96
2022-12-11T01:53:13.063Z,21.30
2022-12-11T01:54:13.062Z,23.76
2022-12-11T01:55:11.291Z,21.06
2022-12-11T01:56:11.064Z,18.26
2022-12-11T01:57:11.064Z,21.24
2022-12-11T01:58:11.064Z,19.16
2022-12-11T01:59:11.061Z,20.80
2022-12-11T02:00:11.062Z,17.98
2022-12-11T02:01:12.110Z,20.16
2022-12-11T02:02:16.068Z,17.56
2022-12-11T02:03:11.062Z,22.06
2022-12-11T02:04:11.090Z,21.68
2022-12-11T02:05:11.363Z,20.64
2022-12-11T02:06:19.072Z,21.14
2022-12-11T02:07:11.064Z,22.48
2022-12-11T02:08:11.144Z,23.18
2022-12-11T02:09:14.063Z,24.72
2022-12-11T02:10:11.064Z,22.38
2022-12-11T02:11:20.065Z,22.10
2022-12-11T02:12:22.060Z,24.76
2022-12-11T02:13:16.058Z,23.86
2022-12-11T02:14:19.061Z,23.42
2022-12-11T02:15:22.056Z,25.44
2022-12-11T02:16:22.076Z,24.40
2022-12-11T02:17:19.060Z,18.42
2022-12-11T02:18:19.060Z,21.72
2022-12-11T02:19:19.060Z,23.06
2022-12-11T02:20:22.058Z,22.24
2022-12-11T02:21:20.058Z,23.24
2022-12-11T02:22:15.062Z,24.80
2022-12-11T02:23:19.062Z,25.20
2022-12-11T02:24:19.059Z,24.72
2022-12-11T02:25:25.058Z,24.76
2022-12-11T02:26:19.067Z,21.08
2022-12-11T02:27:19.055Z,22.28
2022-12-11T02:28:19.058Z,22.28
2022-12-11T02:29:16.066Z,25.04
2022-12-11T02:30:14.060Z,23.04
2022-12-11T02:31:19.070Z,25.22
2022-12-11T02:32:21.063Z,23.84
2022-12-11T02:33:11.062Z,23.42
2022-12-11T02:34:19.057Z,23.66
2022-12-11T02:35:19.059Z,21.82
2022-12-11T02:36:11.055Z,24.32
2022-12-11T02:37:15.069Z,22.90
2022-12-11T02:38:22.061Z,22.34
2022-12-11T02:39:12.060Z,25.44
2022-12-11T02:40:12.061Z,25.76
2022-12-11T02:41:11.061Z,22.72
2022-12-11T02:42:11.060Z,26.62
2022-12-11T02:43:15.065Z,22.90
2022-12-11T02:44:13.062Z,22.90
2022-12-11T02:45:11.298Z,26.68
2022-12-11T02:46:11.106Z,24.58
2022-12-11T02:47:13.063Z,25.26
2022-12-11T02:48:11.060Z,23.08
2022-12-11T02:49:12.056Z,26.12
2022-12-11T02:50:13.067Z,24.34
2022-12-11T02:51:11.060Z,24.56
2022-12-11T02:52:13.056Z,28.04
2022-12-11T02:53:12.067Z,22.80
2022-12-11T02:54:17.061Z,22.48
2022-12-11T02:55:12.199Z,24.92
2022-12-11T02:56:13.067Z,25.92
2022-12-11T02:57:15.079Z,26.46
2022-12-11T02:58:17.057Z,29.68
2022-12-11T02:59:16.058Z,25.20
2022-12-11T03:00:11.062Z,23.88
2022-12-11T03:01:11.098Z,24.52
2022-12-11T03:02:11.098Z,20.70
2022-12-11T03:03:11.060Z,19.80
2022-12-11T03:04:11.059Z,27.42
2022-12-11T03:05:11.384Z,22.36
2022-12-11T03:06:13.060Z,21.58
2022-12-11T03:07:16.061Z,23.00
2022-12-11T03:08:11.082Z,25.74
2022-12-11T03:09:11.070Z,30.34
2022-12-11T03:10:11.059Z,29.22
2022-12-11T03:11:12.061Z,21.00
2022-12-11T03:12:11.077Z,20.64
2022-12-11T03:13:11.058Z,27.68
2022-12-11T03:14:11.060Z,27.56
2022-12-11T03:15:14.061Z,28.54
2022-12-11T03:16:19.120Z,27.20
2022-12-11T03:17:18.060Z,26.24
2022-12-11T03:18:19.075Z,26.20
2022-12-11T03:19:19.060Z,25.08
2022-12-11T03:20:19.061Z,25.98
2022-12-11T03:21:18.062Z,27.42
2022-12-11T03:22:21.063Z,25.06
2022-12-11T03:23:19.071Z,25.64
2022-12-11T03:24:16.061Z,26.70
2022-12-11T03:25:20.063Z,31.58
2022-12-11T03:26:15.063Z,29.04
2022-12-11T03:27:19.072Z,27.48
2022-12-11T03:28:17.060Z,28.28
2022-12-11T03:29:19.059Z,23.52
2022-12-11T03:30:15.061Z,26.50
2022-12-11T03:31:13.130Z,28.70
2022-12-11T03:32:19.060Z,30.64
2022-12-11T03:33:19.069Z,22.54
2022-12-11T03:34:19.061Z,29.90
2022-12-11T03:35:18.085Z,30.54
2022-12-11T03:36:13.060Z,28.36
2022-12-11T03:37:11.060Z,27.96
2022-12-11T03:38:12.065Z,28.34
2022-12-11T03:39:17.063Z,32.84
2022-12-11T03:40:17.057Z,32.66
2022-12-11T03:41:11.061Z,30.48
2022-12-11T03:42:11.062Z,30.52
2022-12-11T03:43:11.059Z,32.20
2022-12-11T03:44:11.088Z,32.90
2022-12-11T03:45:11.480Z,31.16
2022-12-11T03:46:11.087Z,30.66
2022-12-11T03:47:11.063Z,35.38
2022-12-11T03:48:11.062Z,31.96
2022-12-11T03:49:19.058Z,31.40
2022-12-11T03:50:11.060Z,30.86
2022-12-11T03:51:11.061Z,33.74
2022-12-11T03:52:11.060Z,32.62
2022-12-11T03:53:11.064Z,31.62
2022-12-11T03:54:11.063Z,30.88
2022-12-11T03:55:11.433Z,35.14
2022-12-11T03:56:11.095Z,29.38
2022-12-11T03:57:12.062Z,27.94
2022-12-11T03:58:11.061Z,28.32
2022-12-11T03:59:11.064Z,32.54
2022-12-11T04:00:12.064Z,34.68
2022-12-11T04:01:11.061Z,31.40
2022-12-11T04:02:14.064Z,31.12
2022-12-11T04:03:15.146Z,31.20
2022-12-11T04:04:11.095Z,26.94
2022-12-11T04:05:11.318Z,35.90
2022-12-11T04:06:11.063Z,34.82
2022-12-11T04:07:11.089Z,34.82
2022-12-11T04:08:11.191Z,34.64
2022-12-11T04:09:11.066Z,35.22
2022-12-11T04:10:11.063Z,37.62
2022-12-11T04:11:15.067Z,37.50
2022-12-11T04:12:11.064Z,40.88
2022-12-11T04:13:11.071Z,34.52
2022-12-11T04:14:15.064Z,38.88
2022-12-11T04:15:11.231Z,35.22
2022-12-11T04:16:11.148Z,32.84
2022-12-11T04:17:11.070Z,38.64
2022-12-11T04:18:15.064Z,32.86
2022-12-11T04:19:15.060Z,29.20
2022-12-11T04:20:15.058Z,33.18
2022-12-11T04:21:15.061Z,34.28
2022-12-11T04:22:15.071Z,38.14
2022-12-11T04:23:15.064Z,36.56
2022-12-11T04:24:15.062Z,34.72
2022-12-11T04:25:11.372Z,36.24
2022-12-11T04:26:15.063Z,34.24
2022-12-11T04:27:11.061Z,31.82
2022-12-11T04:28:11.065Z,37.42
2022-12-11T04:29:11.070Z,36.82
2022-12-11T04:30:12.065Z,35.18
2022-12-11T04:31:17.190Z,33.92
2022-12-11T04:32:11.065Z,36.30
2022-12-11T04:33:11.062Z,36.54
2022-12-11T04:34:11.063Z,30.22
2022-12-11T04:35:11.306Z,36.36
2022-12-11T04:36:11.063Z,33.64
2022-12-11T04:37:11.066Z,31.74
2022-12-11T04:38:11.063Z,29.64
2022-12-11T04:39:11.063Z,34.58
2022-12-11T04:40:11.058Z,35.98
2022-12-11T04:41:11.066Z,29.96
2022-12-11T04:42:11.062Z,30.94
2022-12-11T04:43:11.068Z,32.22
2022-12-11T04:44:11.064Z,32.74
2022-12-11T04:45:11.307Z,33.36
2022-12-11T04:46:17.143Z,32.80
2022-12-11T04:47:11.062Z,34.00
2022-12-11T04:48:11.065Z,28.80
2022-12-11T04:49:11.063Z,34.68
2022-12-11T04:50:11.061Z,29.56
2022-12-11T04:51:11.064Z,35.92
2022-12-11T04:52:11.062Z,31.92
2022-12-11T04:53:11.061Z,29.36
2022-12-11T04:54:11.064Z,30.50
2022-12-11T04:55:11.304Z,34.04
2022-12-11T04:56:11.064Z,31.54
2022-12-11T04:57:11.065Z,31.38
2022-12-11T04:58:11.062Z,31.64
2022-12-11T04:59:11.065Z,30.54
2022-12-11T05:00:11.068Z,34.14
2022-12-11T05:01:11.141Z,33.90
2022-12-11T05:02:11.071Z,32.32
2022-12-11T05:03:11.099Z,34.00
2022-12-11T05:04:11.062Z,30.28
2022-12-11T05:05:11.324Z,30.68
2022-12-11T05:06:11.064Z,35.38
2022-12-11T05:07:11.060Z,34.64
2022-12-11T05:08:11.079Z,31.38
2022-12-11T05:09:13.062Z,36.40
2022-12-11T05:10:11.062Z,34.30
2022-12-11T05:11:14.066Z,35.18
2022-12-11T05:12:11.060Z,36.72
2022-12-11T05:13:11.055Z,34.96
2022-12-11T05:14:11.058Z,37.58
2022-12-11T05:15:11.415Z,36.08
2022-12-11T05:16:11.106Z,38.14
2022-12-11T05:17:11.058Z,35.38
2022-12-11T05:18:11.057Z,38.68
2022-12-11T05:19:11.056Z,37.50
2022-12-11T05:20:11.059Z,33.40
2022-12-11T05:21:13.061Z,35.58
2022-12-11T05:22:11.055Z,31.08
2022-12-11T05:23:11.056Z,34.74
2022-12-11T05:24:11.058Z,31.66
2022-12-11T05:25:11.328Z,35.64
2022-12-11T05:26:12.057Z,30.74
2022-12-11T05:27:11.057Z,30.96
2022-12-11T05:28:11.056Z,25.72
2022-12-11T05:29:11.061Z,29.24
2022-12-11T05:30:11.058Z,30.08
2022-12-11T05:31:14.156Z,30.82
2022-12-11T05:32:11.060Z,34.94
2022-12-11T05:33:11.058Z,31.90
2022-12-11T05:34:11.053Z,27.80
2022-12-11T05:35:11.380Z,37.28
2022-12-11T05:36:14.055Z,34.52
2022-12-11T05:37:11.055Z,35.08
2022-12-11T05:38:11.065Z,37.94
2022-12-11T05:39:11.057Z,32.14
2022-12-11T05:40:13.070Z,33.98
2022-12-11T05:41:12.065Z,33.04
2022-12-11T05:42:11.059Z,35.20
2022-12-11T05:43:11.053Z,33.00
2022-12-11T05:44:14.068Z,30.70
2022-12-11T05:45:11.364Z,34.86
2022-12-11T05:46:14.158Z,31.02
2022-12-11T05:47:11.057Z,31.76
2022-12-11T05:48:11.093Z,33.14
2022-12-11T05:49:12.059Z,35.34
2022-12-11T05:50:11.059Z,35.12
2022-12-11T05:51:11.058Z,30.90
2022-12-11T05:52:11.059Z,32.06
2022-12-11T05:53:11.057Z,30.40
2022-12-11T05:54:11.058Z,28.28
2022-12-11T05:55:11.399Z,33.78
2022-12-11T05:56:15.066Z,34.22
2022-12-11T05:57:11.058Z,34.00
2022-12-11T05:58:11.056Z,33.34
2022-12-11T05:59:11.066Z,34.62
2022-12-11T06:00:11.057Z,33.60
2022-12-11T06:01:11.057Z,27.06
2022-12-11T06:02:11.188Z,26.26
2022-12-11T06:03:11.119Z,29.06
2022-12-11T06:04:11.058Z,34.56
2022-12-11T06:05:11.363Z,35.66
2022-12-11T06:06:11.057Z,29.38
2022-12-11T06:07:11.058Z,30.16
2022-12-11T06:08:11.106Z,31.62
2022-12-11T06:09:14.060Z,28.90
2022-12-11T06:10:11.057Z,29.76
2022-12-11T06:11:11.060Z,31.48
2022-12-11T06:12:11.057Z,32.96
2022-12-11T06:13:11.060Z,33.70
2022-12-11T06:14:11.060Z,32.02
2022-12-11T06:15:11.368Z,31.34
2022-12-11T06:16:11.112Z,31.68
2022-12-11T06:17:11.059Z,33.28
2022-12-11T06:18:11.057Z,33.44
2022-12-11T06:19:14.060Z,33.50
2022-12-11T06:20:11.081Z,31.54
2022-12-11T06:21:14.058Z,34.12
2022-12-11T06:22:11.057Z,36.10
2022-12-11T06:23:11.066Z,31.94
2022-12-11T06:24:12.058Z,35.00
2022-12-11T06:25:11.397Z,32.46
2022-12-11T06:26:11.068Z,37.44
2022-12-11T06:27:11.058Z,34.72
2022-12-11T06:28:11.059Z,36.34
2022-12-11T06:29:13.012Z,34.98
2022-12-11T06:30:11.060Z,33.52
2022-12-11T06:31:11.091Z,37.04
2022-12-11T06:32:11.063Z,37.58
2022-12-11T06:33:11.057Z,35.38
2022-12-11T06:34:12.060Z,33.30
2022-12-11T06:35:11.263Z,31.92
2022-12-11T06:36:11.058Z,35.60
2022-12-11T06:37:11.060Z,34.86
2022-12-11T06:38:11.066Z,30.62
2022-12-11T06:39:11.058Z,32.20
2022-12-11T06:40:11.058Z,33.66
2022-12-11T06:41:11.060Z,33.04
2022-12-11T06:42:11.058Z,36.28
2022-12-11T06:43:11.059Z,34.82
2022-12-11T06:44:11.069Z,32.24
2022-12-11T06:45:11.210Z,34.60
2022-12-11T06:46:15.176Z,36.22
2022-12-11T06:47:11.062Z,35.24
2022-12-11T06:48:11.058Z,35.96
2022-12-11T06:49:11.059Z,38.14
2022-12-11T06:50:11.069Z,34.28
2022-12-11T06:51:11.059Z,34.54
2022-12-11T06:52:15.096Z,32.82
2022-12-11T06:53:13.805Z,31.58
2022-12-11T06:54:11.059Z,34.10
2022-12-11T06:55:11.372Z,31.52
2022-12-11T06:56:11.061Z,33.90
2022-12-11T06:57:11.059Z,33.38
2022-12-11T06:58:11.059Z,34.52
2022-12-11T06:59:12.060Z,32.48
2022-12-11T07:00:11.063Z,34.06
2022-12-11T07:01:19.138Z,34.44
2022-12-11T07:02:16.100Z,32.88
2022-12-11T07:03:11.063Z,31.08
2022-12-11T07:04:11.068Z,35.22
2022-12-11T07:05:11.455Z,32.46
2022-12-11T07:06:11.062Z,33.16
2022-12-11T07:07:11.062Z,32.34
2022-12-11T07:08:11.101Z,33.84
2022-12-11T07:09:11.062Z,31.58
2022-12-11T07:10:11.060Z,31.94
2022-12-11T07:11:11.062Z,37.40
2022-12-11T07:12:11.062Z,31.74
2022-12-11T07:13:11.058Z,33.44
2022-12-11T07:14:11.068Z,36.22
2022-12-11T07:15:11.346Z,34.62
2022-12-11T07:16:14.099Z,32.74
2022-12-11T07:17:11.063Z,32.26
2022-12-11T07:18:11.060Z,31.30
2022-12-11T07:19:11.060Z,32.46
2022-12-11T07:20:11.063Z,33.74
2022-12-11T07:21:11.062Z,34.70
2022-12-11T07:22:11.057Z,35.68
2022-12-11T07:23:11.062Z,30.62
2022-12-11T07:24:11.062Z,32.60
2022-12-11T07:25:11.314Z,30.08
2022-12-11T07:26:12.066Z,30.22
2022-12-11T07:27:11.061Z,34.44
2022-12-11T07:28:15.193Z,32.16
2022-12-11T07:29:13.050Z,34.70
2022-12-11T07:30:11.063Z,33.98
2022-12-11T07:31:11.062Z,34.54
2022-12-11T07:32:11.176Z,33.24
2022-12-11T07:33:11.061Z,33.48
2022-12-11T07:34:13.062Z,35.70
2022-12-11T07:35:11.458Z,36.04
2022-12-11T07:36:11.066Z,37.20
2022-12-11T07:37:11.062Z,35.28
2022-12-11T07:38:11.061Z,33.66
2022-12-11T07:39:13.065Z,34.92
2022-12-11T07:40:11.063Z,35.04
2022-12-11T07:41:11.062Z,33.66
2022-12-11T07:42:11.069Z,32.06
2022-12-11T07:43:11.060Z,34.92
2022-12-11T07:44:11.064Z,34.20
2022-12-11T07:45:11.319Z,33.44
2022-12-11T07:46:12.142Z,33.98
2022-12-11T07:47:11.062Z,34.54
2022-12-11T07:48:11.069Z,32.08
2022-12-11T07:49:11.074Z,29.80
2022-12-11T07:50:11.081Z,33.38
2022-12-11T07:51:14.069Z,32.74
2022-12-11T07:52:11.063Z,34.12
2022-12-11T07:53:11.060Z,31.82
2022-12-11T07:54:12.075Z,36.20
2022-12-11T07:55:11.354Z,34.52
2022-12-11T07:56:11.058Z,35.66
2022-12-11T07:57:14.063Z,35.64
2022-12-11T07:58:11.061Z,36.60
2022-12-11T07:59:11.062Z,34.16
2022-12-11T08:00:11.060Z,33.24
2022-12-11T08:01:19.120Z,33.16
2022-12-11T08:02:12.163Z,35.52
2022-12-11T08:03:11.064Z,37.36
2022-12-11T08:04:11.068Z,33.82
2022-12-11T08:05:11.354Z,32.88
2022-12-11T08:06:11.058Z,32.70
2022-12-11T08:07:11.069Z,35.12
2022-12-11T08:08:11.119Z,35.38
2022-12-11T08:09:15.975Z,32.18
2022-12-11T08:10:13.792Z,39.46
2022-12-11T08:11:12.079Z,36.18
2022-12-11T08:12:11.055Z,37.10
2022-12-11T08:13:11.056Z,36.94
2022-12-11T08:14:11.057Z,39.22
2022-12-11T08:15:11.371Z,35.34
2022-12-11T08:16:11.056Z,37.72
2022-12-11T08:17:11.057Z,36.86
2022-12-11T08:18:11.056Z,35.08
2022-12-11T08:19:11.060Z,33.32
2022-12-11T08:20:11.057Z,34.44
2022-12-11T08:21:14.054Z,35.60
2022-12-11T08:22:11.056Z,35.96
2022-12-11T08:23:11.058Z,36.16
2022-12-11T08:24:11.057Z,37.30
2022-12-11T08:25:11.323Z,37.66
2022-12-11T08:26:12.060Z,36.84
2022-12-11T08:27:11.057Z,37.46
2022-12-11T08:28:11.056Z,33.90
2022-12-11T08:29:11.059Z,40.34
2022-12-11T08:30:11.054Z,34.84
2022-12-11T08:31:11.114Z,35.80
2022-12-11T08:32:12.585Z,34.70
2022-12-11T08:33:11.053Z,34.60
2022-12-11T08:34:11.065Z,42.96
2022-12-11T08:35:11.323Z,39.74
2022-12-11T08:36:11.058Z,34.62
2022-12-11T08:37:11.065Z,36.64
2022-12-11T08:38:11.057Z,37.00
2022-12-11T08:39:11.059Z,38.58
2022-12-11T08:40:11.065Z,36.68
2022-12-11T08:41:21.057Z,37.78
2022-12-11T08:42:11.058Z,35.94
2022-12-11T08:43:11.057Z,37.48
2022-12-11T08:44:16.728Z,39.58
2022-12-11T08:45:11.315Z,40.62
2022-12-11T08:46:11.131Z,38.06
2022-12-11T08:47:11.060Z,37.82
2022-12-11T08:48:11.057Z,37.26
2022-12-11T08:49:11.061Z,37.54
2022-12-11T08:50:11.064Z,38.28
2022-12-11T08:51:12.061Z,36.46
2022-12-11T08:52:11.059Z,35.02
2022-12-11T08:53:11.058Z,34.82
2022-12-11T08:54:11.057Z,36.30
2022-12-11T08:55:11.275Z,37.06
2022-12-11T08:56:14.059Z,38.24
2022-12-11T08:57:11.057Z,36.92
2022-12-11T08:58:11.059Z,34.08
2022-12-11T08:59:11.062Z,39.04
2022-12-11T09:00:11.058Z,34.24
2022-12-11T09:01:15.117Z,36.62
2022-12-11T09:02:12.072Z,37.12
2022-12-11T09:03:12.948Z,37.02
2022-12-11T09:04:11.060Z,37.34
2022-12-11T09:05:11.303Z,36.12
2022-12-11T09:06:12.059Z,42.82
2022-12-11T09:07:11.054Z,38.62
2022-12-11T09:08:11.123Z,38.60
2022-12-11T09:09:11.056Z,36.50
2022-12-11T09:10:11.060Z,35.60
2022-12-11T09:11:14.066Z,40.50
2022-12-11T09:12:11.058Z,36.94
2022-12-11T09:13:11.061Z,37.00
2022-12-11T09:14:11.067Z,38.42
2022-12-11T09:15:11.195Z,36.34
2022-12-11T09:16:11.099Z,38.94
2022-12-11T09:17:11.066Z,36.78
2022-12-11T09:18:11.058Z,37.28
2022-12-11T09:19:12.057Z,39.20
2022-12-11T09:20:11.059Z,36.98
2022-12-11T09:21:14.058Z,40.70
2022-12-11T09:22:11.059Z,34.78
2022-12-11T09:23:11.061Z,41.82
2022-12-11T09:24:11.061Z,38.78
2022-12-11T09:25:11.274Z,39.20
2022-12-11T09:26:12.059Z,39.68
2022-12-11T09:27:11.058Z,39.86
2022-12-11T09:28:11.057Z,40.58
2022-12-11T09:29:11.060Z,39.48
2022-12-11T09:30:11.056Z,35.40
2022-12-11T09:31:15.117Z,35.48
2022-12-11T09:32:11.067Z,38.78
2022-12-11T09:33:11.058Z,38.98
2022-12-11T09:34:11.060Z,37.04
2022-12-11T09:35:11.338Z,36.68
2022-12-11T09:36:11.060Z,39.26
2022-12-11T09:37:11.061Z,38.20
2022-12-11T09:38:11.066Z,39.60
2022-12-11T09:39:11.061Z,38.30
2022-12-11T09:40:11.062Z,38.18
2022-12-11T09:41:19.072Z,40.86
2022-12-11T09:42:18.061Z,41.28
2022-12-11T09:43:22.069Z,41.48
2022-12-11T09:44:22.060Z,35.24
2022-12-11T09:45:15.058Z,39.74
2022-12-11T09:46:14.104Z,40.00
2022-12-11T09:47:19.059Z,38.50
2022-12-11T09:48:11.060Z,39.76
2022-12-11T09:49:22.062Z,40.90
2022-12-11T09:50:22.073Z,39.28
2022-12-11T09:51:18.062Z,40.30
2022-12-11T09:52:18.077Z,37.56
2022-12-11T09:53:19.064Z,38.66
2022-12-11T09:54:13.061Z,39.68
2022-12-11T09:55:19.062Z,37.78
2022-12-11T09:56:22.060Z,39.38
2022-12-11T09:57:19.061Z,39.82
2022-12-11T09:58:19.064Z,36.50
2022-12-11T09:59:19.063Z,39.34
2022-12-11T10:00:22.062Z,39.14
2022-12-11T10:01:22.102Z,38.44
2022-12-11T10:02:19.128Z,40.54
2022-12-11T10:03:22.062Z,39.18
2022-12-11T10:04:20.068Z,39.62
2022-12-11T10:05:19.061Z,37.98
2022-12-11T10:06:19.059Z,38.38
2022-12-11T10:07:19.057Z,36.50
2022-12-11T10:08:19.142Z,37.22
2022-12-11T10:09:21.068Z,37.18
2022-12-11T10:10:19.064Z,40.38
2022-12-11T10:11:22.059Z,38.00
2022-12-11T10:12:22.062Z,35.38
2022-12-11T10:13:22.064Z,39.70
2022-12-11T10:14:19.060Z,39.26
2022-12-11T10:15:22.068Z,39.10
2022-12-11T10:16:19.165Z,38.98
2022-12-11T10:17:21.066Z,37.10
2022-12-11T10:18:15.066Z,35.58
2022-12-11T10:19:19.063Z,39.60
2022-12-11T10:20:19.066Z,37.00
2022-12-11T10:21:11.069Z,39.62
2022-12-11T10:22:19.059Z,41.34
2022-12-11T10:23:19.063Z,36.60
2022-12-11T10:24:48.928Z,35.04
2022-12-11T10:25:21.076Z,35.00
2022-12-11T10:26:17.063Z,35.58
2022-12-11T10:27:18.060Z,36.52
2022-12-11T10:28:14.063Z,34.24
2022-12-11T10:29:15.069Z,32.84
2022-12-11T10:30:19.062Z,34.84
2022-12-11T10:31:19.191Z,35.82
2022-12-11T10:32:19.063Z,35.68
2022-12-11T10:33:25.068Z,33.02
2022-12-11T10:34:13.075Z,35.28
2022-12-11T10:35:19.060Z,36.38
2022-12-11T10:36:15.059Z,37.56
2022-12-11T10:37:11.071Z,34.96
2022-12-11T10:38:20.087Z,36.14
2022-12-11T10:39:15.061Z,33.94
2022-12-11T10:40:11.058Z,33.74
2022-12-11T10:41:21.076Z,33.82
2022-12-11T10:42:18.073Z,35.22
2022-12-11T10:43:11.062Z,37.68
2022-12-11T10:44:19.064Z,37.08
2022-12-11T10:45:15.071Z,35.00
2022-12-11T10:46:19.172Z,37.18
2022-12-11T10:47:14.062Z,37.80
2022-12-11T10:48:13.062Z,38.98
2022-12-11T10:49:19.061Z,36.56
2022-12-11T10:50:19.061Z,40.64
2022-12-11T10:51:11.059Z,41.12
2022-12-11T10:52:24.068Z,36.78
2022-12-11T10:53:19.064Z,38.86
2022-12-11T10:54:22.061Z,39.42
2022-12-11T10:55:19.063Z,39.46
2022-12-11T10:56:11.064Z,40.96
2022-12-11T10:57:13.069Z,38.48
2022-12-11T10:58:19.063Z,37.84
2022-12-11T10:59:24.133Z,37.86
2022-12-11T11:00:19.066Z,39.14
2022-12-11T11:01:15.188Z,38.94
2022-12-11T11:02:19.096Z,38.22
2022-12-11T11:03:19.061Z,36.30
2022-12-11T11:04:15.060Z,38.94
2022-12-11T11:05:16.064Z,42.34
2022-12-11T11:06:18.068Z,40.94
2022-12-11T11:07:21.063Z,40.34
2022-12-11T11:08:15.181Z,43.72
2022-12-11T11:09:19.065Z,37.76
2022-12-11T11:10:17.076Z,36.56
2022-12-11T11:11:19.063Z,39.26
2022-12-11T11:12:19.053Z,42.06
2022-12-11T11:13:15.057Z,39.16
2022-12-11T11:14:15.065Z,38.38
2022-12-11T11:15:14.189Z,40.38
2022-12-11T11:16:14.141Z,40.92
2022-12-11T11:17:15.059Z,38.98
2022-12-11T11:18:19.058Z,40.14
2022-12-11T11:19:19.057Z,40.08
2022-12-11T11:20:14.065Z,44.52
2022-12-11T11:21:18.066Z,42.54
2022-12-11T11:22:16.061Z,42.08
2022-12-11T11:23:14.056Z,39.74
2022-12-11T11:24:19.057Z,39.02
2022-12-11T11:25:19.070Z,40.86
2022-12-11T11:26:11.057Z,40.02
2022-12-11T11:27:25.055Z,41.26
2022-12-11T11:28:19.059Z,42.66
2022-12-11T11:29:19.060Z,39.32
2022-12-11T11:30:19.060Z,42.10
2022-12-11T11:31:11.087Z,42.54
2022-12-11T11:32:17.058Z,41.10
2022-12-11T11:33:18.056Z,44.88
2022-12-11T11:34:15.060Z,43.96
2022-12-11T11:35:19.056Z,41.16
2022-12-11T11:36:19.059Z,39.70
2022-12-11T11:37:19.063Z,40.46
2022-12-11T11:38:18.059Z,41.86
2022-12-11T11:39:22.057Z,40.22
2022-12-11T11:40:21.061Z,38.76
2022-12-11T11:41:20.060Z,41.60
2022-12-11T11:42:18.060Z,38.76
2022-12-11T11:43:20.067Z,42.86
2022-12-11T11:44:14.078Z,42.86
2022-12-11T11:45:17.054Z,43.90
2022-12-11T11:46:19.127Z,43.24
2022-12-11T11:47:20.058Z,42.36
2022-12-11T11:48:19.056Z,46.16
2022-12-11T11:49:19.056Z,43.26
2022-12-11T11:50:16.060Z,41.26
2022-12-11T11:51:19.061Z,41.68
2022-12-11T11:52:22.062Z,44.12
2022-12-11T11:53:21.056Z,41.40
2022-12-11T11:54:22.056Z,41.90
2022-12-11T11:55:22.022Z,40.22
2022-12-11T11:56:18.068Z,44.52
2022-12-11T11:57:22.057Z,40.78
2022-12-11T11:58:16.075Z,42.70
2022-12-11T11:59:19.060Z,45.96
2022-12-11T12:00:20.061Z,44.08
2022-12-11T12:01:18.068Z,41.50
2022-12-11T12:02:15.060Z,45.30
2022-12-11T12:03:16.058Z,42.80
2022-12-11T12:04:11.058Z,42.62
2022-12-11T12:05:15.059Z,42.88
2022-12-11T12:06:19.061Z,39.52
2022-12-11T12:07:19.058Z,44.16
2022-12-11T12:08:22.110Z,44.96
2022-12-11T12:09:19.117Z,45.88
2022-12-11T12:10:22.057Z,44.72
2022-12-11T12:11:19.060Z,45.46
2022-12-11T12:12:26.608Z,48.10
2022-12-11T12:13:48.577Z,43.18
2022-12-11T12:14:50.985Z,42.56
2022-12-11T12:15:23.029Z,40.98
2022-12-11T12:16:51.084Z,43.50
2022-12-11T12:17:21.109Z,43.18
2022-12-11T12:18:19.057Z,42.26
2022-12-11T12:19:22.059Z,45.96
2022-12-11T12:20:20.059Z,37.70
2022-12-11T12:21:22.066Z,39.34
2022-12-11T12:22:19.067Z,40.36
2022-12-11T12:23:19.059Z,43.46
2022-12-11T12:24:19.058Z,37.32
2022-12-11T12:25:19.058Z,42.60
2022-12-11T12:26:20.061Z,40.30
2022-12-11T12:27:50.923Z,43.40
2022-12-11T12:28:21.037Z,40.10
2022-12-11T12:29:19.061Z,37.54
2022-12-11T12:30:21.825Z,38.24
2022-12-11T12:31:21.073Z,37.34
2022-12-11T12:32:19.067Z,34.58
2022-12-11T12:33:19.060Z,30.74
2022-12-11T12:34:19.062Z,30.68
2022-12-11T12:35:19.056Z,30.20
2022-12-11T12:36:20.059Z,32.86
2022-12-11T12:37:18.066Z,30.82
2022-12-11T12:38:22.061Z,31.40
2022-12-11T12:39:19.059Z,31.60
2022-12-11T12:40:19.056Z,29.90
2022-12-11T12:41:20.059Z,31.26
2022-12-11T12:42:22.070Z,30.24
2022-12-11T12:43:22.059Z,27.30
2022-12-11T12:44:18.161Z,28.46
2022-12-11T12:45:19.058Z,32.82
2022-12-11T12:46:19.088Z,33.76
2022-12-11T12:47:14.067Z,33.76
2022-12-11T12:48:11.063Z,35.48
2022-12-11T12:49:22.056Z,31.86
2022-12-11T12:50:19.058Z,30.90
2022-12-11T12:51:15.061Z,33.78
2022-12-11T12:52:19.062Z,33.48